Time;durP1;ratioP1;P1;durP2;ratioP2;P2;SDS_P1;SDS_P2;PMS_P1;PMS_P2;Temp;Humidity;BMP_temperature;BMP_pressure;BME280_temperature;BME280_humidity;BME280_pressure;Samples;Min_cycle;Max_cycle;Signal;HPM_P1;HPM_P2
2023/08/02 00:01:14;;;;;;;10.63;2.73;;;18.20;99.90;;;;;;7288220;19;20189;-77
2023/08/02 00:03:39;;;;;;;8.07;2.53;;;18.30;99.90;;;;;;7306773;19;20181;-77
2023/08/02 00:06:05;;;;;;;9.60;2.90;;;18.30;99.90;;;;;;7297685;19;20196;-77
2023/08/02 00:08:33;;;;;;;8.53;2.30;;;18.40;99.90;;;;;;7286861;19;20241;-77
2023/08/02 00:10:59;;;;;;;8.10;2.43;;;18.50;99.90;;;;;;7286203;19;20189;-78
2023/08/02 00:13:24;;;;;;;7.50;2.40;;;18.50;99.90;;;;;;7284215;19;20550;-78
2023/08/02 00:15:51;;;;;;;10.47;2.80;;;18.40;99.90;;;;;;7287539;19;20220;-78
2023/08/02 00:18:17;;;;;;;6.73;2.50;;;18.30;99.90;;;;;;7286854;19;20181;-77
2023/08/02 00:20:44;;;;;;;10.63;2.77;;;18.20;99.90;;;;;;7287513;19;20814;-78
2023/08/02 00:23:10;;;;;;;9.33;2.67;;;18.20;99.90;;;;;;7304509;19;20192;-77
2023/08/02 00:25:36;;;;;;;10.53;3.03;;;18.20;99.90;;;;;;7303480;19;20523;-78
2023/08/02 00:28:01;;;;;;;12.87;3.00;;;18.30;99.90;;;;;;7285681;19;20197;-78
2023/08/02 00:30:30;;;;;;;7.97;2.83;;;18.30;99.90;;;;;;7286404;19;20194;-78
2023/08/02 00:32:56;;;;;;;7.57;2.50;;;18.30;99.90;;;;;;7287847;19;20188;-78
2023/08/02 00:35:22;;;;;;;9.87;2.73;;;18.30;99.90;;;;;;7288152;19;20187;-78
2023/08/02 00:37:47;;;;;;;8.80;2.80;;;18.30;99.90;;;;;;7284789;19;20218;-78
2023/08/02 00:40:13;;;;;;;7.57;2.60;;;18.40;99.90;;;;;;7284175;19;20185;-78
2023/08/02 00:42:39;;;;;;;6.73;2.40;;;18.50;99.90;;;;;;7305526;19;20220;-78
2023/08/02 00:45:06;;;;;;;9.07;2.90;;;18.30;99.90;;;;;;7287456;19;20211;-78
2023/08/02 00:47:33;;;;;;;7.83;2.60;;;18.40;99.90;;;;;;7285126;19;20180;-76
2023/08/02 00:50:00;;;;;;;7.83;2.47;;;18.30;99.90;;;;;;7282046;19;20192;-76
2023/08/02 00:52:26;;;;;;;7.97;2.40;;;18.30;99.90;;;;;;7282714;19;20600;-76
2023/08/02 00:54:52;;;;;;;8.57;2.70;;;18.20;99.90;;;;;;7284671;19;20183;-77
2023/08/02 00:57:18;;;;;;;7.33;2.40;;;18.20;99.90;;;;;;7283367;19;20185;-76
2023/08/02 00:59:43;;;;;;;8.53;2.63;;;18.30;99.90;;;;;;7280277;19;20190;-76
2023/08/02 01:02:10;;;;;;;8.43;2.70;;;18.30;99.90;;;;;;7301399;19;20196;-76
2023/08/02 01:04:37;;;;;;;7.07;2.37;;;18.10;99.90;;;;;;7281893;19;20758;-76
2023/08/02 01:07:09;;;;;;;7.43;2.77;;;18.10;99.90;;;;;;7285076;19;20209;-76
2023/08/02 01:09:58;;;;;;;6.60;3.03;;;18.10;99.90;;;;;;7282389;19;20181;-76
2023/08/02 01:12:24;;;;;;;10.00;3.17;;;18.10;99.90;;;;;;7180420;19;2004610;-76
2023/08/02 01:14:55;;;;;;;7.53;2.80;;;18.00;99.90;;;;;;7282503;19;20848;-76
2023/08/02 01:17:24;;;;;;;13.33;3.30;;;18.10;99.90;;;;;;7283253;19;20220;-76
2023/08/02 01:19:49;;;;;;;8.70;3.20;;;18.10;99.90;;;;;;7282652;19;20197;-76
2023/08/02 01:22:16;;;;;;;8.60;3.10;;;18.00;99.90;;;;;;7282570;19;20181;-76
2023/08/02 01:24:42;;;;;;;6.77;2.60;;;18.00;99.90;;;;;;7280370;19;20672;-76
2023/08/02 01:27:13;;;;;;;8.57;2.97;;;18.00;99.90;;;;;;7306105;19;20177;-77
2023/08/02 01:29:45;;;;;;;7.70;3.00;;;18.10;99.90;;;;;;7281954;19;20244;-77
2023/08/02 01:32:11;;;;;;;11.50;3.50;;;18.20;99.90;;;;;;7272141;19;20181;-77
2023/08/02 01:34:39;;;;;;;8.80;3.77;;;18.20;99.90;;;;;;7304169;19;20186;-77
2023/08/02 01:37:05;;;;;;;9.50;3.50;;;18.20;99.90;;;;;;7281262;19;20193;-77
2023/08/02 01:39:31;;;;;;;10.63;3.60;;;18.30;99.90;;;;;;7281823;19;20174;-78
2023/08/02 01:41:56;;;;;;;10.30;3.57;;;18.20;99.90;;;;;;7282799;19;20189;-77
2023/08/02 01:44:22;;;;;;;10.30;3.40;;;18.20;99.90;;;;;;7281384;19;20682;-78
2023/08/02 01:46:48;;;;;;;10.37;3.60;;;18.20;99.90;;;;;;7282755;19;20189;-77
2023/08/02 01:49:14;;;;;;;11.17;3.60;;;18.30;99.90;;;;;;7280736;19;20205;-77
2023/08/02 01:51:40;;;;;;;9.40;3.57;;;18.20;99.90;;;;;;7303265;19;20189;-77
2023/08/02 01:54:05;;;;;;;8.73;3.70;;;18.10;99.90;;;;;;7290953;19;20191;-78
2023/08/02 01:56:31;;;;;;;8.00;3.40;;;18.00;99.90;;;;;;7281303;19;20648;-77
2023/08/02 01:58:57;;;;;;;8.63;3.33;;;18.10;99.90;;;;;;7282059;19;20200;-77
2023/08/02 02:01:22;;;;;;;12.03;3.87;;;18.10;99.90;;;;;;7280493;19;20194;-78
2023/08/02 02:03:48;;;;;;;9.13;3.60;;;18.20;99.90;;;;;;7280871;19;20196;-77
2023/08/02 02:06:14;;;;;;;11.20;3.97;;;18.10;99.90;;;;;;7282280;19;20195;-77
2023/08/02 02:08:40;;;;;;;9.33;3.70;;;18.10;99.90;;;;;;7294015;19;20177;-77
2023/08/02 02:11:07;;;;;;;9.67;3.70;;;18.10;99.90;;;;;;7296727;19;20297;-77
2023/08/02 02:13:33;;;;;;;10.43;3.93;;;18.10;99.90;;;;;;7282037;19;20188;-78
2023/08/02 02:15:59;;;;;;;12.43;4.50;;;18.10;99.90;;;;;;7280911;19;20185;-77
2023/08/02 02:18:24;;;;;;;11.33;3.90;;;18.10;99.90;;;;;;7280658;19;20638;-77
2023/08/02 02:20:50;;;;;;;10.00;3.67;;;18.00;99.90;;;;;;7281752;19;20252;-77
2023/08/02 02:23:16;;;;;;;11.13;4.20;;;17.90;99.90;;;;;;7281716;19;20209;-77
2023/08/02 02:25:42;;;;;;;8.43;3.57;;;18.00;99.90;;;;;;7278663;19;20192;-77
2023/08/02 02:28:10;;;;;;;11.37;4.07;;;17.80;99.90;;;;;;7302329;19;20259;-78
2023/08/02 02:30:35;;;;;;;10.70;3.93;;;17.80;99.90;;;;;;7280930;19;20188;-77
2023/08/02 02:33:03;;;;;;;11.17;3.60;;;17.80;99.90;;;;;;7281827;19;21072;-77
2023/08/02 02:35:29;;;;;;;9.37;3.90;;;17.90;99.90;;;;;;7278810;19;20183;-77
2023/08/02 02:37:55;;;;;;;9.40;3.80;;;18.00;99.90;;;;;;7280403;19;20551;-77
2023/08/02 02:40:21;;;;;;;13.30;3.63;;;18.10;99.90;;;;;;7281071;19;20196;-77
2023/08/02 02:42:47;;;;;;;9.53;4.07;;;18.10;99.90;;;;;;7280497;19;20188;-77
2023/08/02 02:45:13;;;;;;;8.63;3.80;;;18.30;99.90;;;;;;7280219;19;20193;-77
2023/08/02 02:47:40;;;;;;;8.20;3.43;;;18.20;99.90;;;;;;7302202;19;20617;-77
2023/08/02 02:50:06;;;;;;;10.07;3.63;;;18.20;99.90;;;;;;7280420;19;20181;-77
2023/08/02 02:52:34;;;;;;;13.83;3.87;;;18.10;99.90;;;;;;7279657;19;20567;-78
2023/08/02 02:54:59;;;;;;;10.20;4.10;;;18.10;99.90;;;;;;7279547;19;20226;-78
2023/08/02 02:57:25;;;;;;;9.17;3.73;;;18.00;99.90;;;;;;7279872;19;20192;-78
2023/08/02 02:59:51;;;;;;;10.63;3.83;;;17.90;99.90;;;;;;7281364;19;20199;-77
2023/08/02 03:02:17;;;;;;;8.50;4.10;;;17.80;99.90;;;;;;7278798;19;20746;-77
2023/08/02 03:04:43;;;;;;;13.00;4.50;;;17.70;99.90;;;;;;7281186;19;20193;-77
2023/08/02 03:07:09;;;;;;;9.83;4.67;;;17.70;99.90;;;;;;7299519;19;20279;-77
2023/08/02 03:09:34;;;;;;;10.70;4.63;;;17.70;99.90;;;;;;7279262;19;20195;-77
2023/08/02 03:12:00;;;;;;;10.57;4.83;;;17.60;99.90;;;;;;7282079;19;20273;-77
2023/08/02 03:14:27;;;;;;;11.77;4.67;;;17.60;99.90;;;;;;7287495;19;20187;-77
2023/08/02 03:16:53;;;;;;;12.73;4.77;;;17.70;99.90;;;;;;7287456;19;20202;-78
2023/08/02 03:19:18;;;;;;;10.57;4.70;;;17.70;99.90;;;;;;7288935;19;20796;-77
2023/08/02 03:21:44;;;;;;;11.13;4.67;;;17.60;99.90;;;;;;7288049;19;20244;-77
2023/08/02 03:24:10;;;;;;;9.77;4.47;;;17.50;99.90;;;;;;7306653;19;20199;-76
2023/08/02 03:26:36;;;;;;;10.13;4.70;;;17.40;99.90;;;;;;7293806;19;20224;-77
2023/08/02 03:29:01;;;;;;;9.77;4.20;;;17.40;99.90;;;;;;7285130;19;20188;-78
2023/08/02 03:31:27;;;;;;;9.30;4.47;;;17.30;99.90;;;;;;7286218;19;20536;-77
2023/08/02 03:33:53;;;;;;;9.60;4.13;;;17.30;99.90;;;;;;7285599;19;20200;-77
2023/08/02 03:36:19;;;;;;;10.53;4.77;;;17.30;99.90;;;;;;7285938;19;20189;-77
2023/08/02 03:38:45;;;;;;;9.83;4.40;;;17.30;99.90;;;;;;7284008;19;20597;-77
2023/08/02 03:41:11;;;;;;;9.43;4.33;;;17.20;99.90;;;;;;7300132;19;20259;-77
2023/08/02 03:43:36;;;;;;;8.60;4.27;;;17.20;99.90;;;;;;7301247;19;20196;-77
2023/08/02 03:46:02;;;;;;;11.10;4.53;;;17.10;99.90;;;;;;7286078;19;20561;-77
2023/08/02 03:48:31;;;;;;;7.93;4.00;;;17.20;99.90;;;;;;7285085;19;20207;-77
2023/08/02 03:50:57;;;;;;;8.90;4.37;;;17.20;99.90;;;;;;7287210;19;20206;-75
2023/08/02 03:53:23;;;;;;;12.20;5.03;;;17.20;99.90;;;;;;7286585;19;20189;-75
2023/08/02 03:55:49;;;;;;;10.97;4.80;;;17.20;99.90;;;;;;7284260;19;20258;-74
2023/08/02 03:58:15;;;;;;;11.47;4.77;;;17.10;99.90;;;;;;7284295;19;20260;-74
2023/08/02 04:00:41;;;;;;;9.97;4.67;;;17.10;99.90;;;;;;7298571;19;20607;-74
2023/08/02 04:03:06;;;;;;;10.03;4.80;;;17.10;99.90;;;;;;7299863;19;20701;-77
2023/08/02 04:05:32;;;;;;;11.03;4.50;;;17.20;99.90;;;;;;7283647;19;20192;-77
2023/08/02 04:07:58;;;;;;;10.97;4.50;;;17.10;99.90;;;;;;7284207;19;20203;-77
2023/08/02 04:10:24;;;;;;;10.60;4.50;;;17.10;99.90;;;;;;7284521;19;20192;-78
2023/08/02 04:12:51;;;;;;;7.93;4.10;;;17.20;99.90;;;;;;7284830;19;20203;-77
2023/08/02 04:15:17;;;;;;;9.53;3.77;;;17.10;99.90;;;;;;7284196;19;20181;-77
2023/08/02 04:17:43;;;;;;;8.27;4.20;;;17.20;99.90;;;;;;7282798;19;20559;-77
2023/08/02 04:20:09;;;;;;;8.13;3.63;;;17.20;99.90;;;;;;7307100;19;20191;-77
2023/08/02 04:22:35;;;;;;;8.50;3.90;;;17.20;99.90;;;;;;7283484;19;20218;-77
2023/08/02 04:25:03;;;;;;;9.27;3.47;;;17.20;99.90;;;;;;7281997;19;20190;-77
2023/08/02 04:27:29;;;;;;;8.40;3.60;;;17.30;99.90;;;;;;7283000;19;20192;-77
2023/08/02 04:29:55;;;;;;;7.40;3.37;;;17.40;99.90;;;;;;7280297;19;20196;-77
2023/08/02 04:32:21;;;;;;;9.33;3.60;;;17.30;99.90;;;;;;7284478;19;20193;-77
2023/08/02 04:34:47;;;;;;;4.87;2.80;;;17.30;99.90;;;;;;7285074;19;20676;-77
2023/08/02 04:37:12;;;;;;;6.77;3.23;;;17.30;99.90;;;;;;7281385;19;20194;-77
2023/08/02 04:39:38;;;;;;;6.83;2.90;;;17.20;99.90;;;;;;7304811;19;20276;-77
2023/08/02 04:42:04;;;;;;;7.27;2.70;;;17.10;99.90;;;;;;7283978;19;20191;-77
2023/08/02 04:44:30;;;;;;;6.77;2.40;;;17.10;99.90;;;;;;7283117;19;20196;-77
2023/08/02 04:46:56;;;;;;;4.80;2.27;;;17.00;99.90;;;;;;7283943;19;20195;-78
2023/08/02 04:49:21;;;;;;;7.33;2.57;;;17.00;99.90;;;;;;7282543;19;20223;-77
2023/08/02 04:51:48;;;;;;;6.67;2.27;;;17.10;99.90;;;;;;7284894;19;20188;-77
2023/08/02 04:54:14;;;;;;;5.23;2.30;;;17.10;99.90;;;;;;7286234;19;20259;-77
2023/08/02 04:56:40;;;;;;;6.00;2.27;;;17.10;99.90;;;;;;7305302;19;20188;-78
2023/08/02 04:59:07;;;;;;;8.33;1.90;;;17.10;99.90;;;;;;7283892;19;20712;-78
2023/08/02 05:01:33;;;;;;;4.07;1.70;;;17.20;99.90;;;;;;7285669;19;20812;-77
2023/08/02 05:03:59;;;;;;;3.77;1.83;;;17.10;99.90;;;;;;7282965;19;20191;-77
2023/08/02 05:06:24;;;;;;;6.70;1.70;;;17.10;99.90;;;;;;7284612;19;20389;-77
2023/08/02 05:08:50;;;;;;;4.80;1.67;;;17.10;99.90;;;;;;7281583;19;20196;-78
2023/08/02 05:11:16;;;;;;;5.73;1.47;;;17.20;99.90;;;;;;7280615;19;20188;-77
2023/08/02 05:13:41;;;;;;;5.27;1.80;;;17.20;99.90;;;;;;7297930;19;20203;-77
2023/08/02 05:16:16;;;;;;;2.90;1.47;;;17.20;99.90;;;;;;7302044;19;20193;-77
2023/08/02 05:18:42;;;;;;;4.80;1.67;;;17.20;99.90;;;;;;7268725;19;20195;-78
2023/08/02 05:21:15;;;;;;;4.23;1.40;;;17.30;99.90;;;;;;7305359;19;20185;-77
2023/08/02 05:23:42;;;;;;;3.47;1.33;;;17.20;99.90;;;;;;7282398;19;20186;-76
2023/08/02 05:26:09;;;;;;;2.87;1.30;;;17.20;99.90;;;;;;7306551;19;21002;-77
2023/08/02 05:28:35;;;;;;;4.83;1.17;;;17.30;99.90;;;;;;7283228;19;20193;-78
2023/08/02 05:31:01;;;;;;;3.47;1.10;;;17.30;99.90;;;;;;7283125;19;20201;-77
2023/08/02 05:33:27;;;;;;;3.27;0.90;;;17.30;99.90;;;;;;7283604;19;20839;-78
2023/08/02 05:35:53;;;;;;;2.77;0.80;;;17.30;99.90;;;;;;7281102;19;20193;-78
2023/08/02 05:38:19;;;;;;;3.23;0.80;;;17.30;99.90;;;;;;7283179;19;20683;-78
2023/08/02 05:40:45;;;;;;;5.20;0.90;;;17.30;99.90;;;;;;7283235;19;20227;-78
2023/08/02 05:43:11;;;;;;;4.40;0.80;;;17.30;99.90;;;;;;7305422;19;20192;-78
2023/08/02 05:45:36;;;;;;;3.53;0.60;;;17.30;99.90;;;;;;7294389;19;20237;-78
2023/08/02 05:48:03;;;;;;;3.47;0.70;;;17.30;99.90;;;;;;7283703;19;20660;-78
2023/08/02 05:50:29;;;;;;;2.40;0.60;;;17.40;99.90;;;;;;7283974;19;20187;-78
2023/08/02 05:52:55;;;;;;;2.40;0.80;;;17.50;99.90;;;;;;7283954;19;20199;-79
2023/08/02 05:55:21;;;;;;;1.80;0.60;;;17.60;99.90;;;;;;7283279;19;20598;-77
2023/08/02 05:57:49;;;;;;;3.37;0.60;;;17.60;99.90;;;;;;7284906;19;20191;-76
2023/08/02 06:00:16;;;;;;;3.10;0.40;;;17.70;99.90;;;;;;7281899;19;20536;-77
2023/08/02 06:02:42;;;;;;;1.53;0.60;;;17.70;99.90;;;;;;7292709;19;20544;-77
2023/08/02 06:05:08;;;;;;;2.20;0.70;;;17.70;99.90;;;;;;7300618;19;20183;-77
2023/08/02 06:07:34;;;;;;;2.30;0.50;;;17.80;99.90;;;;;;7284598;19;20199;-77
2023/08/02 06:10:00;;;;;;;2.83;0.50;;;17.80;99.90;;;;;;7283162;19;20196;-77
2023/08/02 06:12:26;;;;;;;1.07;0.30;;;17.90;99.90;;;;;;7282988;19;20268;-77
2023/08/02 06:14:51;;;;;;;1.03;0.40;;;18.00;99.90;;;;;;7282733;19;20999;-75
2023/08/02 06:17:17;;;;;;;0.40;0.20;;;18.10;99.90;;;;;;7281344;19;20228;-77
2023/08/02 06:19:43;;;;;;;2.47;0.40;;;18.10;99.90;;;;;;7280846;19;20197;-77
2023/08/02 06:22:09;;;;;;;1.03;0.33;;;18.20;99.90;;;;;;7303250;19;20184;-76
2023/08/02 06:24:35;;;;;;;1.10;0.30;;;18.30;99.90;;;;;;7281368;19;20189;-76
2023/08/02 06:27:01;;;;;;;2.83;0.30;;;18.30;99.90;;;;;;7283178;19;20202;-76
2023/08/02 06:29:27;;;;;;;0.70;0.20;;;18.30;99.90;;;;;;7280531;19;20551;-76
2023/08/02 06:31:53;;;;;;;0.30;0.17;;;18.30;99.90;;;;;;7280415;19;20185;-76
2023/08/02 06:34:18;;;;;;;0.50;0.30;;;18.50;99.90;;;;;;7281679;19;20192;-77
2023/08/02 06:36:44;;;;;;;1.47;0.30;;;18.40;99.90;;;;;;7281271;19;20309;-77
2023/08/02 06:39:10;;;;;;;0.30;0.20;;;18.50;99.90;;;;;;7303598;19;20556;-76
2023/08/02 06:41:35;;;;;;;0.80;0.30;;;18.50;99.90;;;;;;7281337;19;21333;-76
2023/08/02 06:44:08;;;;;;;1.23;0.40;;;18.60;99.90;;;;;;7279514;19;20195;-76
2023/08/02 06:46:34;;;;;;;0.50;0.30;;;18.70;99.90;;;;;;7281478;19;20195;-77
2023/08/02 06:49:00;;;;;;;0.40;0.20;;;18.80;99.90;;;;;;7282505;19;20193;-77
2023/08/02 06:51:26;;;;;;;2.77;0.20;;;18.80;99.90;;;;;;7280223;19;20186;-78
2023/08/02 06:53:57;;;;;;;0.50;0.30;;;18.90;99.90;;;;;;7281698;19;20194;-76
2023/08/02 06:56:23;;;;;;;0.43;0.20;;;18.90;99.90;;;;;;7279947;19;20271;-76
2023/08/02 06:58:49;;;;;;;0.23;0.20;;;19.00;99.90;;;;;;7276070;19;20189;-75
2023/08/02 07:01:16;;;;;;;0.63;0.30;;;19.10;99.90;;;;;;7278861;19;20202;-75
2023/08/02 07:03:42;;;;;;;1.30;0.30;;;19.30;99.90;;;;;;7288496;19;20198;-76
2023/08/02 07:06:10;;;;;;;1.17;0.20;;;19.30;99.90;;;;;;7301183;19;20192;-76
2023/08/02 07:08:37;;;;;;;1.23;0.20;;;19.40;99.90;;;;;;7276000;19;20546;-76
2023/08/02 07:11:04;;;;;;;1.33;0.23;;;19.40;99.90;;;;;;7276282;19;20182;-76
2023/08/02 07:13:30;;;;;;;0.30;0.20;;;19.60;99.90;;;;;;7276812;19;20208;-75
2023/08/02 07:15:56;;;;;;;1.37;0.20;;;19.60;99.90;;;;;;7277341;19;20199;-76
2023/08/02 07:18:22;;;;;;;0.10;0.10;;;19.80;99.90;;;;;;7277217;19;20188;-77
2023/08/02 07:20:48;;;;;;;0.40;0.13;;;19.90;99.90;;;;;;7279239;19;20197;-75
2023/08/02 07:23:14;;;;;;;0.50;0.20;;;20.10;99.90;;;;;;7277398;19;20192;-76
2023/08/02 07:25:39;;;;;;;3.40;0.23;;;20.10;99.90;;;;;;7301292;19;20210;-76
2023/08/02 07:28:05;;;;;;;1.07;0.30;;;20.10;99.90;;;;;;7277869;19;20207;-76
2023/08/02 07:30:31;;;;;;;0.37;0.20;;;20.30;99.90;;;;;;7277190;19;20179;-76
2023/08/02 07:32:57;;;;;;;0.53;0.20;;;20.40;99.90;;;;;;7278179;19;20201;-76
2023/08/02 07:35:22;;;;;;;0.60;0.13;;;20.40;99.90;;;;;;7278495;19;20188;-76
2023/08/02 07:37:48;;;;;;;0.50;0.20;;;20.40;99.90;;;;;;7275532;19;20193;-77
2023/08/02 07:40:14;;;;;;;0.33;0.20;;;21.40;99.90;;;;;;7278449;19;20196;-76
2023/08/02 07:42:40;;;;;;;0.23;0.20;;;22.00;99.90;;;;;;7298320;19;20186;-76
2023/08/02 07:45:08;;;;;;;2.03;0.20;;;22.30;99.90;;;;;;7277802;19;20187;-76
2023/08/02 07:47:35;;;;;;;0.23;0.10;;;22.30;99.90;;;;;;7278645;19;20607;-76
2023/08/02 07:50:01;;;;;;;0.67;0.10;;;22.10;99.90;;;;;;7276958;19;20192;-76
2023/08/02 07:52:27;;;;;;;1.53;0.10;;;22.00;99.90;;;;;;7278979;19;20192;-76
2023/08/02 07:54:54;;;;;;;0.53;0.10;;;21.80;99.90;;;;;;7278255;19;20185;-75
2023/08/02 07:57:25;;;;;;;1.07;0.20;;;21.80;99.90;;;;;;7275361;19;20900;-76
2023/08/02 07:59:52;;;;;;;1.00;0.20;;;21.90;99.90;;;;;;7284443;19;20316;-77
2023/08/02 08:02:20;;;;;;;0.10;0.10;;;22.00;99.90;;;;;;7283351;19;20817;-76
2023/08/02 08:04:46;;;;;;;2.30;0.10;;;21.70;99.90;;;;;;7284373;19;20185;-75
2023/08/02 08:07:12;;;;;;;0.67;0.10;;;21.30;99.90;;;;;;7297857;19;20643;-75
2023/08/02 08:09:38;;;;;;;0.63;0.13;;;21.30;99.90;;;;;;7306023;19;20263;-76
2023/08/02 08:12:05;;;;;;;1.00;0.23;;;21.30;99.90;;;;;;7284422;19;20250;-76
2023/08/02 08:14:32;;;;;;;1.03;0.30;;;21.20;99.90;;;;;;7284345;19;20217;-76
2023/08/02 08:16:58;;;;;;;1.63;0.30;;;21.20;99.90;;;;;;7283279;19;20207;-76
2023/08/02 08:19:28;;;;;;;1.90;0.30;;;21.80;99.90;;;;;;7285532;19;20195;-76
2023/08/02 08:21:54;;;;;;;1.07;0.20;;;22.60;99.90;;;;;;7283115;19;20209;-77
2023/08/02 08:24:20;;;;;;;0.40;0.30;;;22.80;99.90;;;;;;7280274;19;20185;-76
2023/08/02 08:26:46;;;;;;;0.30;0.20;;;23.30;99.90;;;;;;7283799;19;20192;-76
2023/08/02 08:29:11;;;;;;;0.80;0.30;;;23.60;99.90;;;;;;7303429;19;20184;-76
2023/08/02 08:31:38;;;;;;;2.10;0.40;;;23.80;99.90;;;;;;7294466;19;20204;-76
2023/08/02 08:34:04;;;;;;;0.87;0.30;;;23.90;99.90;;;;;;7280081;19;20292;-77
2023/08/02 08:36:30;;;;;;;2.23;0.30;;;24.20;99.90;;;;;;7281588;19;20196;-77
2023/08/02 08:38:56;;;;;;;1.80;0.20;;;24.50;99.90;;;;;;7283048;19;20203;-77
2023/08/02 08:41:22;;;;;;;2.00;0.30;;;24.80;99.90;;;;;;7283852;19;20196;-76
2023/08/02 08:43:48;;;;;;;1.47;0.40;;;25.50;99.90;;;;;;7280958;19;20545;-76
2023/08/02 08:46:14;;;;;;;0.77;0.30;;;25.60;99.90;;;;;;7282911;19;20243;-76
2023/08/02 08:48:41;;;;;;;1.07;0.20;;;25.80;99.90;;;;;;7306436;19;20613;-76
2023/08/02 08:51:09;;;;;;;0.93;0.33;;;25.80;99.90;;;;;;7283191;19;20193;-76
2023/08/02 08:53:40;;;;;;;0.87;0.40;;;26.10;99.90;;;;;;7282145;19;20196;-75
2023/08/02 08:56:05;;;;;;;1.98;0.30;;;26.90;99.90;;;;;;7283333;19;20195;-76
2023/08/02 08:58:32;;;;;;;0.73;0.40;;;27.10;99.90;;;;;;7285562;19;20213;-76
2023/08/02 09:00:58;;;;;;;1.80;0.40;;;26.70;99.90;;;;;;7285091;19;20188;-77
2023/08/02 09:03:25;;;;;;;1.73;0.25;;;27.00;99.90;;;;;;7285295;19;20225;-76
2023/08/02 09:05:51;;;;;;;1.65;0.30;;;27.70;99.90;;;;;;7281798;19;20201;-76
2023/08/02 09:08:17;;;;;;;2.50;0.55;;;28.00;99.90;;;;;;7284811;19;20193;-77
2023/08/02 09:10:43;;;;;;;1.80;0.25;;;27.40;99.90;;;;;;7286144;19;20192;-76
2023/08/02 09:13:25;;;;;;;0.80;0.20;;;26.50;99.90;;;;;;7303629;19;20192;-76
2023/08/02 09:16:14;;;;;;;1.35;0.30;;;25.80;99.90;;;;;;7180301;19;2004608;-76
2023/08/02 09:18:44;;;;;;;1.38;0.40;;;25.40;99.90;;;;;;7281213;19;20312;-76
2023/08/02 09:21:14;;;;;;;0.70;0.20;;;25.00;99.90;;;;;;7284056;19;20185;-76
2023/08/02 09:23:47;;;;;;;1.13;0.30;;;24.30;99.90;;;;;;7281522;19;20185;-76
2023/08/02 09:26:17;;;;;;;3.67;0.73;;;23.70;99.90;;;;;;7267113;19;20304;-76
2023/08/02 09:29:02;;;;;;;2.80;0.73;;;23.30;99.90;;;;;;7286374;19;20206;-76
2023/08/02 09:31:30;;;;;;;2.70;0.70;;;22.90;99.90;;;;;;7281419;19;20185;-76
2023/08/02 09:33:56;;;;;;;3.30;0.67;;;22.10;99.90;;;;;;7283126;19;20919;-77
2023/08/02 09:36:27;;;;;;;1.63;0.60;;;21.70;99.90;;;;;;7281102;19;20196;-76
2023/08/02 09:39:01;;;;;;;4.00;1.00;;;21.50;99.90;;;;;;7281539;19;20183;-76
2023/08/02 09:41:28;;;;;;;3.67;0.90;;;21.60;99.90;;;;;;7280635;19;20258;-77
2023/08/02 09:43:54;;;;;;;3.33;1.00;;;21.70;99.90;;;;;;7280673;19;20191;-77
2023/08/02 09:46:29;;;;;;;1.90;0.87;;;21.70;99.90;;;;;;7279005;19;20212;-76
2023/08/02 09:48:59;;;;;;;2.43;0.70;;;21.70;99.90;;;;;;7279160;19;20189;-77
2023/08/02 09:51:46;;;;;;;1.47;0.60;;;21.80;99.90;;;;;;7280058;19;20204;-76
2023/08/02 09:54:14;;;;;;;2.43;0.60;;;21.90;99.90;;;;;;7279642;19;20187;-77
2023/08/02 09:56:41;;;;;;;2.80;0.77;;;22.00;99.90;;;;;;7281272;19;20196;-77
2023/08/02 09:59:08;;;;;;;3.20;0.80;;;22.20;99.90;;;;;;7280241;19;20219;-76
2023/08/02 10:01:35;;;;;;;6.23;1.10;;;22.70;99.90;;;;;;7280054;19;20209;-76
2023/08/02 10:04:09;;;;;;;6.57;1.30;;;22.90;99.90;;;;;;7280116;19;20189;-76
2023/08/02 10:06:42;;;;;;;5.17;1.37;;;23.10;99.90;;;;;;7280115;19;20199;-76
2023/08/02 10:09:08;;;;;;;4.40;1.47;;;23.60;99.90;;;;;;7280164;19;20184;-77
2023/08/02 10:11:49;;;;;;;4.63;1.70;;;24.20;99.90;;;;;;7278741;19;20188;-77
2023/08/02 10:14:15;;;;;;;8.50;1.80;;;24.80;99.90;;;;;;7255860;19;20196;-77
2023/08/02 10:16:44;;;;;;;8.23;2.10;;;26.30;99.90;;;;;;7301196;19;20199;-76
2023/08/02 10:19:17;;;;;;;5.67;2.00;;;27.70;99.90;;;;;;7176972;19;2004584;-78
2023/08/02 10:21:44;;;;;;;8.07;2.03;;;28.20;99.90;;;;;;7284631;19;20602;-76
2023/08/02 10:24:13;;;;;;;6.90;1.80;;;29.50;99.90;;;;;;7296948;19;20208;-77
2023/08/02 10:26:41;;;;;;;6.93;1.40;;;28.80;99.90;;;;;;7279828;19;20181;-77
2023/08/02 10:29:09;;;;;;;9.13;1.58;;;28.40;99.90;;;;;;7277099;19;20683;-76
2023/08/02 10:31:35;;;;;;;9.10;1.85;;;27.50;99.90;;;;;;7277481;19;20189;-75
2023/08/02 10:34:20;;;;;;;6.53;1.63;;;27.20;99.90;;;;;;7281184;19;20193;-77
2023/08/02 10:36:56;;;;;;;7.35;1.50;;;27.30;99.90;;;;;;7254093;19;20248;-77
2023/08/02 10:39:47;;;;;;;6.60;1.38;;;27.90;99.90;;;;;;7278882;19;20259;-77
2023/08/02 10:42:18;;;;;;;9.70;1.85;;;29.30;99.90;;;;;;7267206;19;20711;-77
2023/08/02 10:44:56;;;;;;;8.18;1.58;;;30.70;99.90;;;;;;7280027;19;20232;-77
2023/08/02 10:47:25;;;;;;;8.18;1.50;;;30.20;99.90;;;;;;7280850;19;20592;-77
2023/08/02 10:49:53;;;;;;;9.68;1.88;;;28.50;99.90;;;;;;7278191;19;20189;-77
2023/08/02 10:52:35;;;;;;;8.13;1.50;;;28.20;99.90;;;;;;7279943;19;20189;-77
2023/08/02 10:55:14;;;;;;;11.40;2.05;;;27.30;99.90;;;;;;7278097;19;20189;-77
2023/08/02 10:58:05;;;;;;;9.80;1.92;;;26.60;99.90;;;;;;7278734;19;20200;-77
2023/08/02 11:00:32;;;;;;;7.63;1.50;;;26.60;99.90;;;;;;7174849;19;2004574;-77
2023/08/02 11:02:59;;;;;;;8.75;1.90;;;27.00;99.90;;;;;;7277809;19;20256;-77
2023/08/02 11:05:46;;;;;;;10.18;1.90;;;27.40;99.90;;;;;;7279815;19;20192;-77
2023/08/02 11:08:12;;;;;;;10.05;1.98;;;27.50;99.90;;;;;;7280161;19;20177;-77
2023/08/02 11:10:47;;;;;;;7.55;1.80;;;28.70;99.90;;;;;;7278792;19;20188;-79
2023/08/02 11:13:13;;;;;;;8.73;1.73;;;30.80;99.90;;;;;;7264197;19;20221;-78
2023/08/02 11:15:39;;;;;;;4.38;1.15;;;32.10;99.90;;;;;;7300412;19;20546;-78
2023/08/02 11:18:05;;;;;;;9.82;2.08;;;33.10;99.90;;;;;;7279251;19;20185;-78
2023/08/02 11:20:32;;;;;;;7.85;1.60;;;33.00;99.90;;;;;;7278852;19;20212;-77
2023/08/02 11:22:58;;;;;;;7.60;1.73;;;33.60;99.90;;;;;;7276769;19;20280;-78
2023/08/02 11:25:24;;;;;;;9.68;1.88;;;34.10;98.70;;;;;;7279287;19;20680;-78
2023/08/02 11:28:03;;;;;;;9.43;1.70;;;34.50;97.40;;;;;;7278558;19;20192;-77
2023/08/02 11:30:29;;;;;;;7.75;1.50;;;34.00;95.80;;;;;;7276794;19;20289;-77
2023/08/02 11:32:56;;;;;;;6.95;1.50;;;34.50;98.20;;;;;;7279689;19;20439;-78
2023/08/02 11:35:22;;;;;;;7.97;1.70;;;34.20;94.50;;;;;;7284066;19;20248;-78
2023/08/02 11:37:48;;;;;;;6.22;1.70;;;33.90;91.50;;;;;;7285444;19;20783;-78
2023/08/02 11:40:14;;;;;;;9.25;1.90;;;33.90;93.70;;;;;;7289084;19;20192;-78
2023/08/02 11:42:48;;;;;;;7.47;1.77;;;35.00;93.30;;;;;;7306466;19;20260;-76
2023/08/02 11:45:26;;;;;;;5.85;1.30;;;34.90;90.60;;;;;;7264442;19;20191;-78
2023/08/02 11:47:52;;;;;;;12.13;1.63;;;33.80;90.40;;;;;;7287115;19;20216;-78
2023/08/02 11:50:24;;;;;;;8.88;1.70;;;33.10;90.80;;;;;;7284249;19;20727;-77
2023/08/02 11:52:50;;;;;;;5.47;1.48;;;32.60;92.20;;;;;;7279432;19;20181;-77
2023/08/02 11:55:17;;;;;;;10.27;1.80;;;31.50;92.30;;;;;;7283843;19;20192;-77
2023/08/02 11:57:43;;;;;;;6.88;1.45;;;30.10;95.50;;;;;;7300027;19;20181;-77
2023/08/02 12:00:09;;;;;;;7.60;1.52;;;29.20;99.90;;;;;;7303035;19;20194;-78
2023/08/02 12:02:37;;;;;;;9.55;1.52;;;28.80;99.90;;;;;;7286613;19;20184;-78
2023/08/02 12:05:08;;;;;;;6.28;1.92;;;28.20;99.90;;;;;;7281813;19;20625;-77
2023/08/02 12:07:35;;;;;;;7.13;1.20;;;27.50;99.90;;;;;;7284362;19;20206;-77
2023/08/02 12:10:04;;;;;;;10.48;1.90;;;27.00;99.90;;;;;;7284540;19;20185;-78
2023/08/02 12:12:32;;;;;;;11.00;1.50;;;26.30;99.90;;;;;;7284520;19;20536;-77
2023/08/02 12:15:08;;;;;;;11.18;1.88;;;26.00;99.90;;;;;;7281570;19;20205;-77
2023/08/02 12:17:34;;;;;;;9.43;1.70;;;25.90;99.90;;;;;;7283488;19;20208;-78
2023/08/02 12:19:59;;;;;;;6.60;1.23;;;25.70;99.90;;;;;;7284594;19;20586;-77
2023/08/02 12:22:25;;;;;;;5.73;1.20;;;25.70;99.90;;;;;;7281570;19;20192;-77
2023/08/02 12:25:05;;;;;;;9.70;1.40;;;25.50;99.90;;;;;;7280470;19;20192;-77
2023/08/02 12:27:31;;;;;;;7.20;1.10;;;25.20;99.90;;;;;;7284569;19;20667;-77
2023/08/02 12:30:16;;;;;;;9.00;1.13;;;24.40;99.90;;;;;;7284485;19;20192;-78
2023/08/02 12:32:42;;;;;;;8.20;1.20;;;24.00;99.90;;;;;;7286307;19;20554;-77
2023/08/02 12:35:09;;;;;;;8.40;1.30;;;24.20;99.90;;;;;;7283929;19;20192;-77
2023/08/02 12:37:36;;;;;;;6.67;0.90;;;24.40;99.90;;;;;;7282406;19;20184;-78
2023/08/02 12:40:03;;;;;;;4.93;1.00;;;24.40;99.90;;;;;;7284309;19;20636;-77
2023/08/02 12:42:29;;;;;;;5.23;0.97;;;24.60;99.90;;;;;;7283140;19;20200;-77
2023/08/02 12:44:54;;;;;;;3.63;0.63;;;24.40;99.90;;;;;;7281758;19;20195;-78
2023/08/02 12:47:20;;;;;;;6.50;0.70;;;23.90;99.90;;;;;;7285438;19;20196;-77